sensor_id;sensor_type;location;lat;lon;timestamp;pressure;altitude;pressure_sealevel;temperature;humidity
3917;BME280;1973;50.518;7.318;2023-02-28T00:00:32;102169.31;;;1.26;100.00
3917;BME280;1973;50.518;7.318;2023-02-28T00:02:58;102172.44;;;1.21;100.00
3917;BME280;1973;50.518;7.318;2023-02-28T00:05:27;102174.38;;;1.19;100.00
3917;BME280;1973;50.518;7.318;2023-02-28T00:07:53;102171.81;;;1.18;100.00
3917;BME280;1973;50.518;7.318;2023-02-28T00:10:24;102172.03;;;1.15;100.00
3917;BME280;1973;50.518;7.318;2023-02-28T00:12:52;102160.56;;;1.11;100.00
3917;BME280;1973;50.518;7.318;2023-02-28T00:15:20;102176.19;;;1.08;100.00
3917;BME280;1973;50.518;7.318;2023-02-28T00:17:47;102172.75;;;1.06;100.00
3917;BME280;1973;50.518;7.318;2023-02-28T00:20:14;102171.28;;;1.02;100.00
3917;BME280;1973;50.518;7.318;2023-02-28T00:22:45;102172.25;;;1.01;100.00
3917;BME280;1973;50.518;7.318;2023-02-28T00:25:14;102169.06;;;0.95;100.00
3917;BME280;1973;50.518;7.318;2023-02-28T00:27:42;102168.44;;;0.92;100.00
3917;BME280;1973;50.518;7.318;2023-02-28T00:30:12;102171.16;;;0.92;100.00
3917;BME280;1973;50.518;7.318;2023-02-28T00:32:39;102170.13;;;0.93;100.00
3917;BME280;1973;50.518;7.318;2023-02-28T00:35:06;102164.38;;;0.97;100.00
3917;BME280;1973;50.518;7.318;2023-02-28T00:37:33;102165.97;;;1.00;100.00
3917;BME280;1973;50.518;7.318;2023-02-28T00:39:59;102171.03;;;1.05;100.00
3917;BME280;1973;50.518;7.318;2023-02-28T00:42:26;102170.91;;;1.06;100.00
3917;BME280;1973;50.518;7.318;2023-02-28T00:44:53;102169.69;;;1.10;100.00
3917;BME280;1973;50.518;7.318;2023-02-28T00:47:20;102166.84;;;1.12;100.00
3917;BME280;1973;50.518;7.318;2023-02-28T00:49:46;102169.19;;;1.16;100.00
3917;BME280;1973;50.518;7.318;2023-02-28T00:52:13;102172.44;;;1.21;100.00
3917;BME280;1973;50.518;7.318;2023-02-28T00:54:39;102177.59;;;1.24;100.00
3917;BME280;1973;50.518;7.318;2023-02-28T00:57:06;102172.91;;;1.26;100.00
3917;BME280;1973;50.518;7.318;2023-02-28T00:59:32;102182.66;;;1.29;100.00
3917;BME280;1973;50.518;7.318;2023-02-28T01:01:58;102168.00;;;1.31;100.00
3917;BME280;1973;50.518;7.318;2023-02-28T01:04:25;102175.16;;;1.32;100.00
3917;BME280;1973;50.518;7.318;2023-02-28T01:06:52;102173.41;;;1.31;100.00
3917;BME280;1973;50.518;7.318;2023-02-28T01:09:18;102173.41;;;1.31;100.00
3917;BME280;1973;50.518;7.318;2023-02-28T01:11:45;102177.72;;;1.34;100.00
3917;BME280;1973;50.518;7.318;2023-02-28T01:14:16;102175.16;;;1.32;100.00
3917;BME280;1973;50.518;7.318;2023-02-28T01:16:43;102168.97;;;1.30;100.00
3917;BME280;1973;50.518;7.318;2023-02-28T01:19:09;102169.09;;;1.29;100.00
3917;BME280;1973;50.518;7.318;2023-02-28T01:21:36;102172.91;;;1.26;100.00
3917;BME280;1973;50.518;7.318;2023-02-28T01:24:04;102174.13;;;1.22;100.00
3917;BME280;1973;50.518;7.318;2023-02-28T01:26:31;102178.81;;;1.20;100.00
3917;BME280;1973;50.518;7.318;2023-02-28T01:28:58;102173.50;;;1.19;100.00
3917;BME280;1973;50.518;7.318;2023-02-28T01:31:25;102180.81;;;1.18;100.00
3917;BME280;1973;50.518;7.318;2023-02-28T01:33:52;102172.88;;;1.15;100.00
3917;BME280;1973;50.518;7.318;2023-02-28T01:36:22;102169.56;;;1.12;100.00
3917;BME280;1973;50.518;7.318;2023-02-28T01:38:49;102174.34;;;1.08;100.00
3917;BME280;1973;50.518;7.318;2023-02-28T01:41:24;102172.16;;;1.02;100.00
3917;BME280;1973;50.518;7.318;2023-02-28T01:46:51;102168.28;;;0.93;100.00
3917;BME280;1973;50.518;7.318;2023-02-28T01:49:18;102171.97;;;0.92;100.00
3917;BME280;1973;50.518;7.318;2023-02-28T01:51:51;102164.84;;;0.91;100.00
3917;BME280;1973;50.518;7.318;2023-02-28T01:54:26;102170.38;;;0.90;100.00
3917;BME280;1973;50.518;7.318;2023-02-28T01:57:01;102167.81;;;0.88;100.00
3917;BME280;1973;50.518;7.318;2023-02-28T01:59:36;102164.47;;;0.85;100.00
3917;BME280;1973;50.518;7.318;2023-02-28T02:02:06;102169.91;;;0.85;100.00
3917;BME280;1973;50.518;7.318;2023-02-28T02:04:38;102175.41;;;0.83;100.00
3917;BME280;1973;50.518;7.318;2023-02-28T02:07:06;102168.59;;;0.78;100.00
3917;BME280;1973;50.518;7.318;2023-02-28T02:09:33;102162.34;;;0.77;100.00
3917;BME280;1973;50.518;7.318;2023-02-28T02:12:10;102154.34;;;0.76;100.00
3917;BME280;1973;50.518;7.318;2023-02-28T02:14:53;102157.16;;;0.74;100.00
3917;BME280;1973;50.518;7.318;2023-02-28T02:17:41;102151.25;;;0.69;100.00
3917;BME280;1973;50.518;7.318;2023-02-28T02:26:02;102160.94;;;0.61;100.00
3917;BME280;1973;50.518;7.318;2023-02-28T02:29:02;102161.16;;;0.58;100.00
3917;BME280;1973;50.518;7.318;2023-02-28T02:31:58;102155.13;;;0.54;100.00
3917;BME280;1973;50.518;7.318;2023-02-28T02:34:52;102161.22;;;0.45;100.00
3917;BME280;1973;50.518;7.318;2023-02-28T02:40:03;102155.44;;;0.38;100.00
3917;BME280;1973;50.518;7.318;2023-02-28T02:45:10;102155.13;;;0.30;100.00
3917;BME280;1973;50.518;7.318;2023-02-28T02:47:39;102149.22;;;0.25;100.00
3917;BME280;1973;50.518;7.318;2023-02-28T02:50:12;102159.19;;;0.25;100.00
3917;BME280;1973;50.518;7.318;2023-02-28T02:52:44;102150.44;;;0.21;100.00
3917;BME280;1973;50.518;7.318;2023-02-28T02:55:13;102151.41;;;0.20;100.00
3917;BME280;1973;50.518;7.318;2023-02-28T02:57:50;102152.50;;;0.18;100.00
3917;BME280;1973;50.518;7.318;2023-02-28T03:00:22;102158.78;;;0.18;100.00
3917;BME280;1973;50.518;7.318;2023-02-28T03:02:52;102155.09;;;0.19;100.00
3917;BME280;1973;50.518;7.318;2023-02-28T03:05:26;102165.69;;;0.22;100.00
3917;BME280;1973;50.518;7.318;2023-02-28T03:07:54;102156.47;;;0.25;100.00
3917;BME280;1973;50.518;7.318;2023-02-28T03:10:39;102155.50;;;0.26;100.00
3917;BME280;1973;50.518;7.318;2023-02-28T03:16:33;102162.00;;;0.23;100.00
3917;BME280;1973;50.518;7.318;2023-02-28T03:19:30;102147.81;;;0.20;100.00
3917;BME280;1973;50.518;7.318;2023-02-28T03:22:11;102161.38;;;0.20;100.00
3917;BME280;1973;50.518;7.318;2023-02-28T03:24:50;102153.38;;;0.18;100.00
3917;BME280;1973;50.518;7.318;2023-02-28T03:27:41;102162.47;;;0.17;100.00
3917;BME280;1973;50.518;7.318;2023-02-28T03:30:25;102149.66;;;0.19;100.00
3917;BME280;1973;50.518;7.318;2023-02-28T03:32:59;102146.84;;;0.21;100.00
3917;BME280;1973;50.518;7.318;2023-02-28T03:35:32;102153.88;;;0.23;100.00
3917;BME280;1973;50.518;7.318;2023-02-28T03:38:08;102148.34;;;0.25;100.00
3917;BME280;1973;50.518;7.318;2023-02-28T03:40:44;102150.94;;;0.26;100.00
3917;BME280;1973;50.518;7.318;2023-02-28T03:43:16;102150.81;;;0.28;100.00
3917;BME280;1973;50.518;7.318;2023-02-28T03:45:45;102153.78;;;0.25;100.00
3917;BME280;1973;50.518;7.318;2023-02-28T03:48:19;102159.28;;;0.23;100.00
3917;BME280;1973;50.518;7.318;2023-02-28T03:50:53;102161.25;;;0.21;100.00
3917;BME280;1973;50.518;7.318;2023-02-28T03:53:32;102162.22;;;0.20;100.00
3917;BME280;1973;50.518;7.318;2023-02-28T03:56:07;102165.91;;;0.19;100.00
3917;BME280;1973;50.518;7.318;2023-02-28T04:01:43;102153.38;;;0.18;100.00
3917;BME280;1973;50.518;7.318;2023-02-28T04:04:12;102159.75;;;0.17;100.00
3917;BME280;1973;50.518;7.318;2023-02-28T04:06:40;102167.13;;;0.15;100.00
3917;BME280;1973;50.518;7.318;2023-02-28T04:09:08;102160.09;;;0.13;100.00
3917;BME280;1973;50.518;7.318;2023-02-28T04:11:46;102165.97;;;0.07;100.00
3917;BME280;1973;50.518;7.318;2023-02-28T04:14:15;102161.63;;;0.04;100.00
3917;BME280;1973;50.518;7.318;2023-02-28T04:16:42;102160.66;;;0.05;100.00
3917;BME280;1973;50.518;7.318;2023-02-28T04:19:10;102163.38;;;0.05;100.00
3917;BME280;1973;50.518;7.318;2023-02-28T04:21:42;102164.34;;;0.04;100.00
3917;BME280;1973;50.518;7.318;2023-02-28T04:24:13;102165.44;;;0.02;100.00
3917;BME280;1973;50.518;7.318;2023-02-28T04:26:44;102164.81;;;-0.02;100.00
3917;BME280;1973;50.518;7.318;2023-02-28T04:29:12;102169.50;;;-0.04;100.00
3917;BME280;1973;50.518;7.318;2023-02-28T04:31:39;102172.28;;;-0.06;100.00
3917;BME280;1973;50.518;7.318;2023-02-28T04:34:06;102164.28;;;-0.07;100.00
3917;BME280;1973;50.518;7.318;2023-02-28T04:36:33;102160.72;;;-0.08;100.00
3917;BME280;1973;50.518;7.318;2023-02-28T04:38:59;102166.25;;;-0.09;100.00
3917;BME280;1973;50.518;7.318;2023-02-28T04:41:26;102165.50;;;-0.11;100.00
3917;BME280;1973;50.518;7.318;2023-02-28T04:43:57;102165.63;;;-0.13;100.00
3917;BME280;1973;50.518;7.318;2023-02-28T04:46:23;102167.69;;;-0.16;100.00
3917;BME280;1973;50.518;7.318;2023-02-28T04:48:50;102163.47;;;-0.20;100.00
3917;BME280;1973;50.518;7.318;2023-02-28T04:51:18;102172.78;;;-0.24;100.00
3917;BME280;1973;50.518;7.318;2023-02-28T04:53:45;102175.94;;;-0.30;100.00
3917;BME280;1973;50.518;7.318;2023-02-28T04:56:13;102177.13;;;-0.34;100.00
3917;BME280;1973;50.518;7.318;2023-02-28T04:58:40;102176.50;;;-0.38;100.00
3917;BME280;1973;50.518;7.318;2023-02-28T05:03:42;102176.28;;;-0.47;100.00
3917;BME280;1973;50.518;7.318;2023-02-28T05:06:09;102175.78;;;-0.53;100.00
3917;BME280;1973;50.518;7.318;2023-02-28T05:08:37;102180.41;;;-0.55;100.00
3917;BME280;1973;50.518;7.318;2023-02-28T05:11:04;102177.84;;;-0.56;100.00
3917;BME280;1973;50.518;7.318;2023-02-28T05:13:32;102176.31;;;-0.60;100.00
3917;BME280;1973;50.518;7.318;2023-02-28T05:15:58;102186.50;;;-0.64;100.00
3917;BME280;1973;50.518;7.318;2023-02-28T05:18:24;102180.22;;;-0.64;100.00
3917;BME280;1973;50.518;7.318;2023-02-28T05:20:51;102188.41;;;-0.66;100.00
3917;BME280;1973;50.518;7.318;2023-02-28T05:23:19;102181.31;;;-0.67;100.00
3917;BME280;1973;50.518;7.318;2023-02-28T05:25:48;102186.72;;;-0.67;100.00
3917;BME280;1973;50.518;7.318;2023-02-28T05:28:15;102187.56;;;-0.66;100.00
3917;BME280;1973;50.518;7.318;2023-02-28T05:30:41;102184.97;;;-0.68;100.00
3917;BME280;1973;50.518;7.318;2023-02-28T05:33:11;102182.28;;;-0.68;100.00
3917;BME280;1973;50.518;7.318;2023-02-28T05:35:39;102181.50;;;-0.70;100.00
3917;BME280;1973;50.518;7.318;2023-02-28T05:38:06;102188.00;;;-0.72;100.00
3917;BME280;1973;50.518;7.318;2023-02-28T05:40:32;102195.38;;;-0.74;100.00
3917;BME280;1973;50.518;7.318;2023-02-28T05:42:59;102203.56;;;-0.76;100.00
3917;BME280;1973;50.518;7.318;2023-02-28T05:45:26;102190.38;;;-0.80;100.00
3917;BME280;1973;50.518;7.318;2023-02-28T05:47:55;102200.31;;;-0.81;100.00
3917;BME280;1973;50.518;7.318;2023-02-28T05:50:22;102204.09;;;-0.83;100.00
3917;BME280;1973;50.518;7.318;2023-02-28T05:52:50;102196.00;;;-0.83;100.00
3917;BME280;1973;50.518;7.318;2023-02-28T05:55:16;102196.88;;;-0.83;100.00
3917;BME280;1973;50.518;7.318;2023-02-28T05:57:43;102199.66;;;-0.84;100.00
3917;BME280;1973;50.518;7.318;2023-02-28T06:00:10;102201.63;;;-0.86;100.00
3917;BME280;1973;50.518;7.318;2023-02-28T06:02:39;102195.56;;;-0.90;100.00
3917;BME280;1973;50.518;7.318;2023-02-28T06:05:15;102198.50;;;-0.93;100.00
3917;BME280;1973;50.518;7.318;2023-02-28T06:07:41;102206.78;;;-0.96;100.00
3917;BME280;1973;50.518;7.318;2023-02-28T06:10:09;102202.25;;;-0.95;100.00
3917;BME280;1973;50.518;7.318;2023-02-28T06:12:37;102203.13;;;-0.95;100.00
3917;BME280;1973;50.518;7.318;2023-02-28T06:15:04;102191.44;;;-0.95;100.00
3917;BME280;1973;50.518;7.318;2023-02-28T06:17:30;102214.91;;;-0.96;100.00
3917;BME280;1973;50.518;7.318;2023-02-28T06:19:56;102205.09;;;-0.97;100.00
3917;BME280;1973;50.518;7.318;2023-02-28T06:22:23;102209.63;;;-0.98;100.00
3917;BME280;1973;50.518;7.318;2023-02-28T06:24:49;102206.78;;;-0.96;100.00
3917;BME280;1973;50.518;7.318;2023-02-28T06:27:16;102214.91;;;-0.96;100.00
3917;BME280;1973;50.518;7.318;2023-02-28T06:29:42;102223.00;;;-0.96;100.00
3917;BME280;1973;50.518;7.318;2023-02-28T06:32:09;102214.16;;;-0.98;100.00
3917;BME280;1973;50.518;7.318;2023-02-28T06:34:35;102221.38;;;-0.99;100.00
3917;BME280;1973;50.518;7.318;2023-02-28T06:37:02;102222.25;;;-0.98;100.00
3917;BME280;1973;50.518;7.318;2023-02-28T06:39:29;102221.38;;;-0.99;100.00
3917;BME280;1973;50.518;7.318;2023-02-28T06:41:56;102219.78;;;-1.01;100.00
3917;BME280;1973;50.518;7.318;2023-02-28T06:44:24;102225.19;;;-1.01;100.00
3917;BME280;1973;50.518;7.318;2023-02-28T06:46:50;102225.19;;;-1.01;100.00
3917;BME280;1973;50.518;7.318;2023-02-28T06:49:17;102225.28;;;-1.03;100.00
3917;BME280;1973;50.518;7.318;2023-02-28T06:51:44;102230.59;;;-1.01;100.00
3917;BME280;1973;50.518;7.318;2023-02-28T06:54:14;102227.88;;;-1.01;100.00
3917;BME280;1973;50.518;7.318;2023-02-28T06:56:40;102236.00;;;-1.01;100.00
3917;BME280;1973;50.518;7.318;2023-02-28T06:59:07;102240.22;;;-0.97;100.00
3917;BME280;1973;50.518;7.318;2023-02-28T07:01:34;102248.97;;;-0.93;100.00
3917;BME280;1973;50.518;7.318;2023-02-28T07:04:01;102243.34;;;-0.90;100.00
3917;BME280;1973;50.518;7.318;2023-02-28T07:06:27;102250.28;;;-0.86;100.00
3917;BME280;1973;50.518;7.318;2023-02-28T07:08:54;102251.78;;;-0.82;100.00
3917;BME280;1973;50.518;7.318;2023-02-28T07:11:23;102249.84;;;-0.80;100.00
3917;BME280;1973;50.518;7.318;2023-02-28T07:13:55;102253.09;;;-0.75;100.00
3917;BME280;1973;50.518;7.318;2023-02-28T07:16:23;102251.78;;;-0.70;100.00
3917;BME280;1973;50.518;7.318;2023-02-28T07:18:52;102254.09;;;-0.64;100.00
3917;BME280;1973;50.518;7.318;2023-02-28T07:21:19;102252.03;;;-0.60;100.00
3917;BME280;1973;50.518;7.318;2023-02-28T07:23:45;102249.09;;;-0.57;100.00
3917;BME280;1973;50.518;7.318;2023-02-28T07:26:15;102249.84;;;-0.55;100.00
3917;BME280;1973;50.518;7.318;2023-02-28T07:28:44;102255.06;;;-0.52;100.00
3917;BME280;1973;50.518;7.318;2023-02-28T07:31:12;102260.34;;;-0.51;100.00
3917;BME280;1973;50.518;7.318;2023-02-28T07:33:40;102253.75;;;-0.46;100.00
3917;BME280;1973;50.518;7.318;2023-02-28T07:36:10;102255.28;;;-0.42;100.00
3917;BME280;1973;50.518;7.318;2023-02-28T07:38:42;102256.78;;;-0.38;100.00
3917;BME280;1973;50.518;7.318;2023-02-28T07:41:15;102260.88;;;-0.33;100.00
3917;BME280;1973;50.518;7.318;2023-02-28T07:43:41;102260.56;;;-0.28;100.00
3917;BME280;1973;50.518;7.318;2023-02-28T07:46:10;102253.72;;;-0.21;100.00
3917;BME280;1973;50.518;7.318;2023-02-28T07:48:37;102255.13;;;-0.16;100.00
3917;BME280;1973;50.518;7.318;2023-02-28T07:51:04;102255.47;;;-0.08;100.00
3917;BME280;1973;50.518;7.318;2023-02-28T07:53:31;102253.91;;;0.01;100.00
3917;BME280;1973;50.518;7.318;2023-02-28T07:55:59;102256.91;;;0.09;100.00
3917;BME280;1973;50.518;7.318;2023-02-28T07:58:28;102252.69;;;0.18;100.00
3917;BME280;1973;50.518;7.318;2023-02-28T08:00:56;102256.53;;;0.26;100.00
3917;BME280;1973;50.518;7.318;2023-02-28T08:03:23;102252.38;;;0.33;100.00
3917;BME280;1973;50.518;7.318;2023-02-28T08:05:50;102255.53;;;0.40;100.00
3917;BME280;1973;50.518;7.318;2023-02-28T08:08:18;102256.66;;;0.48;100.00
3917;BME280;1973;50.518;7.318;2023-02-28T08:10:45;102256.97;;;0.57;100.00
3917;BME280;1973;50.518;7.318;2023-02-28T08:13:11;102251.09;;;0.63;100.00
3917;BME280;1973;50.518;7.318;2023-02-28T08:15:38;102248.78;;;0.69;100.00
3917;BME280;1973;50.518;7.318;2023-02-28T08:18:05;102248.94;;;0.79;100.00
3917;BME280;1973;50.518;7.318;2023-02-28T08:20:31;102238.50;;;0.85;100.00
3917;BME280;1973;50.518;7.318;2023-02-28T08:22:58;102241.38;;;0.95;100.00
3917;BME280;1973;50.518;7.318;2023-02-28T08:25:24;102248.06;;;1.02;100.00
3917;BME280;1973;50.518;7.318;2023-02-28T08:27:52;102233.03;;;1.09;100.00
3917;BME280;1973;50.518;7.318;2023-02-28T08:30:18;102232.56;;;1.15;100.00
3917;BME280;1973;50.518;7.318;2023-02-28T08:32:45;102225.56;;;1.24;100.00
3917;BME280;1973;50.518;7.318;2023-02-28T08:35:12;102226.81;;;1.31;100.00
3917;BME280;1973;50.518;7.318;2023-02-28T08:37:38;102220.88;;;1.37;100.00
3917;BME280;1973;50.518;7.318;2023-02-28T08:40:05;102221.28;;;1.43;100.00
3917;BME280;1973;50.518;7.318;2023-02-28T08:42:32;102224.38;;;1.50;100.00
3917;BME280;1973;50.518;7.318;2023-02-28T08:44:58;102230.91;;;1.59;100.00
3917;BME280;1973;50.518;7.318;2023-02-28T08:47:25;102230.41;;;1.65;98.51
3917;BME280;1973;50.518;7.318;2023-02-28T08:49:52;102230.69;;;1.73;98.93
3917;BME280;1973;50.518;7.318;2023-02-28T08:52:18;102228.06;;;1.82;98.37
3917;BME280;1973;50.518;7.318;2023-02-28T08:54:45;102233.63;;;1.92;96.79
3917;BME280;1973;50.518;7.318;2023-02-28T08:57:11;102222.13;;;2.00;95.64
3917;BME280;1973;50.518;7.318;2023-02-28T08:59:38;102224.72;;;2.12;94.96
3917;BME280;1973;50.518;7.318;2023-02-28T09:02:04;102221.09;;;2.23;94.39
3917;BME280;1973;50.518;7.318;2023-02-28T09:04:30;102222.94;;;2.33;92.45
3917;BME280;1973;50.518;7.318;2023-02-28T09:06:57;102213.03;;;2.43;89.77
3917;BME280;1973;50.518;7.318;2023-02-28T09:09:23;102219.53;;;2.52;87.45
3917;BME280;1973;50.518;7.318;2023-02-28T09:11:50;102209.75;;;2.61;86.32
3917;BME280;1973;50.518;7.318;2023-02-28T09:14:16;102203.78;;;2.67;83.41
3917;BME280;1973;50.518;7.318;2023-02-28T09:16:43;102202.75;;;2.79;82.74
3917;BME280;1973;50.518;7.318;2023-02-28T09:19:11;102207.88;;;2.93;81.71
3917;BME280;1973;50.518;7.318;2023-02-28T09:21:38;102206.56;;;3.08;80.88
3917;BME280;1973;50.518;7.318;2023-02-28T09:24:05;102197.06;;;3.23;81.56
3917;BME280;1973;50.518;7.318;2023-02-28T09:26:31;102202.91;;;3.39;77.78
3917;BME280;1973;50.518;7.318;2023-02-28T09:29:08;102199.97;;;3.52;75.12
3917;BME280;1973;50.518;7.318;2023-02-28T09:31:35;102199.59;;;3.66;73.86
3917;BME280;1973;50.518;7.318;2023-02-28T09:34:03;102198.09;;;3.83;72.55
3917;BME280;1973;50.518;7.318;2023-02-28T09:36:30;102195.84;;;3.98;71.79
3917;BME280;1973;50.518;7.318;2023-02-28T09:39:10;102205.78;;;4.18;70.76
3917;BME280;1973;50.518;7.318;2023-02-28T09:41:39;102203.81;;;4.29;69.88
3917;BME280;1973;50.518;7.318;2023-02-28T09:44:20;102194.66;;;4.40;66.92
3917;BME280;1973;50.518;7.318;2023-02-28T09:46:53;102196.13;;;4.54;64.65
3917;BME280;1973;50.518;7.318;2023-02-28T09:49:24;102191.97;;;4.69;66.66
3917;BME280;1973;50.518;7.318;2023-02-28T09:52:00;102187.94;;;4.82;62.13
3917;BME280;1973;50.518;7.318;2023-02-28T09:54:30;102179.47;;;4.95;63.59
3917;BME280;1973;50.518;7.318;2023-02-28T10:02:16;102186.03;;;5.31;57.39
3917;BME280;1973;50.518;7.318;2023-02-28T10:04:52;102182.38;;;5.50;53.73
3917;BME280;1973;50.518;7.318;2023-02-28T10:09:58;102179.66;;;5.77;51.83
3917;BME280;1973;50.518;7.318;2023-02-28T10:12:29;102174.16;;;5.96;51.84
3917;BME280;1973;50.518;7.318;2023-02-28T10:14:57;102177.75;;;6.24;49.28
3917;BME280;1973;50.518;7.318;2023-02-28T10:17:38;102171.91;;;6.36;44.66
3917;BME280;1973;50.518;7.318;2023-02-28T10:20:26;102165.81;;;6.78;49.65
3917;BME280;1973;50.518;7.318;2023-02-28T10:23:23;102163.22;;;6.94;44.66
3917;BME280;1973;50.518;7.318;2023-02-28T10:25:59;102166.22;;;6.83;45.98
3917;BME280;1973;50.518;7.318;2023-02-28T10:28:28;102160.56;;;6.84;47.34
3917;BME280;1973;50.518;7.318;2023-02-28T10:30:55;102171.59;;;6.93;46.37
3917;BME280;1973;50.518;7.318;2023-02-28T10:35:51;102156.72;;;6.95;46.14
3917;BME280;1973;50.518;7.318;2023-02-28T10:38:25;102156.56;;;6.97;43.75
3917;BME280;1973;50.518;7.318;2023-02-28T10:41:10;102156.41;;;6.80;43.30
3917;BME280;1973;50.518;7.318;2023-02-28T10:43:39;102161.03;;;6.80;46.88
3917;BME280;1973;50.518;7.318;2023-02-28T10:48:41;102155.09;;;6.67;43.52
3917;BME280;1973;50.518;7.318;2023-02-28T10:51:14;102160.50;;;6.59;44.25
3917;BME280;1973;50.518;7.318;2023-02-28T10:53:54;102150.56;;;6.58;44.52
3917;BME280;1973;50.518;7.318;2023-02-28T10:56:28;102158.47;;;6.61;45.38
3917;BME280;1973;50.518;7.318;2023-02-28T10:59:25;102160.66;;;6.75;42.48
3917;BME280;1973;50.518;7.318;2023-02-28T11:01:53;102145.63;;;7.22;45.03
3917;BME280;1973;50.518;7.318;2023-02-28T11:07:00;102153.63;;;8.09;42.27
3917;BME280;1973;50.518;7.318;2023-02-28T11:09:31;102144.06;;;8.21;42.46
3917;BME280;1973;50.518;7.318;2023-02-28T11:11:59;102136.25;;;8.43;42.96
3917;BME280;1973;50.518;7.318;2023-02-28T11:14:31;102129.09;;;8.50;41.01
3917;BME280;1973;50.518;7.318;2023-02-28T11:17:14;102129.44;;;8.87;41.36
3917;BME280;1973;50.518;7.318;2023-02-28T11:19:45;102121.00;;;9.21;41.95
3917;BME280;1973;50.518;7.318;2023-02-28T11:22:19;102121.84;;;9.21;39.96
3917;BME280;1973;50.518;7.318;2023-02-28T11:24:50;102118.59;;;9.34;41.43
3917;BME280;1973;50.518;7.318;2023-02-28T11:27:40;102116.22;;;9.70;39.86
3917;BME280;1973;50.518;7.318;2023-02-28T11:30:29;102111.88;;;9.84;37.81
3917;BME280;1973;50.518;7.318;2023-02-28T11:32:56;102111.06;;;9.75;40.21
3917;BME280;1973;50.518;7.318;2023-02-28T11:35:32;102109.69;;;9.79;38.01
3917;BME280;1973;50.518;7.318;2023-02-28T11:38:02;102108.66;;;9.72;40.07
3917;BME280;1973;50.518;7.318;2023-02-28T11:40:35;102103.50;;;9.69;39.51
3917;BME280;1973;50.518;7.318;2023-02-28T11:43:13;102110.34;;;9.81;39.18
3917;BME280;1973;50.518;7.318;2023-02-28T11:45:46;102112.81;;;9.68;39.73
3917;BME280;1973;50.518;7.318;2023-02-28T11:48:27;102114.84;;;9.74;36.76
3917;BME280;1973;50.518;7.318;2023-02-28T12:07:33;102104.88;;;9.02;38.09
3917;BME280;1973;50.518;7.318;2023-02-28T12:10:05;102099.22;;;9.11;37.86
3917;BME280;1973;50.518;7.318;2023-02-28T12:15:27;102102.84;;;9.67;38.51
3917;BME280;1973;50.518;7.318;2023-02-28T12:20:59;102081.22;;;10.56;36.93
3917;BME280;1973;50.518;7.318;2023-02-28T12:24:25;102080.03;;;10.73;34.16
3917;BME280;1973;50.518;7.318;2023-02-28T12:26:53;102093.69;;;10.67;36.63
3917;BME280;1973;50.518;7.318;2023-02-28T12:29:40;102091.56;;;10.92;34.08
3917;BME280;1973;50.518;7.318;2023-02-28T12:32:18;102082.31;;;11.07;33.38
3917;BME280;1973;50.518;7.318;2023-02-28T12:34:55;102077.06;;;11.12;34.30
3917;BME280;1973;50.518;7.318;2023-02-28T12:37:38;102066.63;;;10.70;32.42
3917;BME280;1973;50.518;7.318;2023-02-28T12:40:21;102065.28;;;10.44;34.08
3917;BME280;1973;50.518;7.318;2023-02-28T12:42:56;102075.81;;;10.63;36.45
3917;BME280;1973;50.518;7.318;2023-02-28T12:48:08;102062.81;;;11.23;35.63
3917;BME280;1973;50.518;7.318;2023-02-28T12:50:37;102064.28;;;11.63;35.52
3917;BME280;1973;50.518;7.318;2023-02-28T12:56:16;102070.81;;;11.92;33.96
3917;BME280;1973;50.518;7.318;2023-02-28T12:58:49;102061.00;;;12.04;34.32
3917;BME280;1973;50.518;7.318;2023-02-28T13:01:42;102071.63;;;11.71;32.13
3917;BME280;1973;50.518;7.318;2023-02-28T13:07:14;102069.81;;;11.78;33.81
3917;BME280;1973;50.518;7.318;2023-02-28T13:09:57;102059.53;;;11.72;33.60
3917;BME280;1973;50.518;7.318;2023-02-28T13:12:25;102059.03;;;11.83;34.67
3917;BME280;1973;50.518;7.318;2023-02-28T13:15:08;102064.09;;;11.80;33.06
3917;BME280;1973;50.518;7.318;2023-02-28T13:17:48;102065.41;;;11.54;34.85
3917;BME280;1973;50.518;7.318;2023-02-28T13:20:39;102064.38;;;11.85;34.60
3917;BME280;1973;50.518;7.318;2023-02-28T13:23:37;102050.53;;;11.99;32.28
3917;BME280;1973;50.518;7.318;2023-02-28T13:26:04;102056.47;;;12.17;34.67
3917;BME280;1973;50.518;7.318;2023-02-28T13:31:24;102041.56;;;12.12;34.18
3917;BME280;1973;50.518;7.318;2023-02-28T13:38:55;102041.72;;;11.89;33.11
3917;BME280;1973;50.518;7.318;2023-02-28T13:41:46;102045.09;;;12.06;32.31
3917;BME280;1973;50.518;7.318;2023-02-28T13:44:21;102038.75;;;12.27;33.00
3917;BME280;1973;50.518;7.318;2023-02-28T13:49:31;102033.88;;;12.50;31.67
3917;BME280;1973;50.518;7.318;2023-02-28T14:09:03;102018.34;;;12.98;32.23
3917;BME280;1973;50.518;7.318;2023-02-28T14:11:37;102009.72;;;13.07;33.40
3917;BME280;1973;50.518;7.318;2023-02-28T14:14:05;102018.34;;;12.98;33.11
3917;BME280;1973;50.518;7.318;2023-02-28T14:16:41;102002.34;;;13.14;33.08
3917;BME280;1973;50.518;7.318;2023-02-28T14:19:23;102006.94;;;13.07;32.02
3917;BME280;1973;50.518;7.318;2023-02-28T14:22:12;102012.41;;;12.73;31.61
3917;BME280;1973;50.518;7.318;2023-02-28T14:33:20;101993.56;;;12.83;32.83
3917;BME280;1973;50.518;7.318;2023-02-28T14:41:28;102000.44;;;12.66;31.60
3917;BME280;1973;50.518;7.318;2023-02-28T14:43:58;102000.84;;;12.63;32.58
3917;BME280;1973;50.518;7.318;2023-02-28T14:46:35;101994.41;;;12.56;31.75
3917;BME280;1973;50.518;7.318;2023-02-28T14:49:09;101989.34;;;12.59;33.55
3917;BME280;1973;50.518;7.318;2023-02-28T14:51:38;101988.72;;;12.85;33.35
3917;BME280;1973;50.518;7.318;2023-02-28T14:54:05;101985.22;;;12.77;32.89
3917;BME280;1973;50.518;7.318;2023-02-28T14:56:38;101988.28;;;12.88;31.82
3917;BME280;1973;50.518;7.318;2023-02-28T14:59:17;101982.00;;;13.01;33.30
3917;BME280;1973;50.518;7.318;2023-02-28T15:01:49;101983.03;;;13.28;33.02
3917;BME280;1973;50.518;7.318;2023-02-28T15:04:25;101982.69;;;13.37;32.28
3917;BME280;1973;50.518;7.318;2023-02-28T15:07:10;101975.72;;;13.48;31.09
3917;BME280;1973;50.518;7.318;2023-02-28T15:09:37;101985.09;;;13.60;33.10
3917;BME280;1973;50.518;7.318;2023-02-28T15:12:04;101974.81;;;13.88;32.57
3917;BME280;1973;50.518;7.318;2023-02-28T15:14:31;101978.69;;;14.00;32.25
3917;BME280;1973;50.518;7.318;2023-02-28T15:17:07;101982.41;;;13.73;30.53
3917;BME280;1973;50.518;7.318;2023-02-28T15:19:39;101986.81;;;13.61;30.81
3917;BME280;1973;50.518;7.318;2023-02-28T15:22:13;101990.28;;;13.29;30.21